Terminal Aerodrome Forecast
Issued by NWS

Current Version | Previous Version | Text Only | Print | Product List | Glossary On
Versions: 1 2 3 4 5 6 7 8 9 10 11 12 13 14 15 16 17 18 19 20 21 22 23 24 25 26 27 28
000
FTUS43 KDLH 311500 AAA
TAFBRD
TAF AMD
KBRD 311521Z 3115/0112 01008G15KT P6SM -SHSN BKN020
      TEMPO 3115/3118 4SM -SN OVC020
     FM312200 03008G15KT P6SM SCT025
     FM010300 05008KT P6SM SCT200=

USA.gov is the U.S. government's official web portal to all federal, state and local government web resources and services.